Time;durP1;ratioP1;P1;durP2;ratioP2;P2;SDS_P1;SDS_P2;PMS_P1;PMS_P2;Temp;Humidity;BMP_temperature;BMP_pressure;BME280_temperature;BME280_humidity;BME280_pressure;Samples;Min_cycle;Max_cycle;Signal;HPM_P1;HPM_P2
2023/10/06 00:00:50;;;;;;;21.90;15.77;;;;;;;13.59;79.64;98318.34;10447377;28;20111;-49
2023/10/06 00:05:49;;;;;;;23.95;16.20;;;;;;;13.38;80.25;98296.66;10446384;28;20071;-48
2023/10/06 00:10:51;;;;;;;;;;;;;;;13.38;80.91;98314.91;10447456;28;20077;-48
2023/10/06 00:15:50;;;;;;;24.15;17.33;;;;;;;13.42;80.91;98308.81;10446502;28;19966;-50
2023/10/06 00:20:57;;;;;;;27.98;18.60;;;;;;;13.41;80.71;98312.28;10445356;28;20070;-51
2023/10/06 00:25:56;;;;;;;28.83;20.02;;;;;;;13.31;81.94;98321.00;10487705;28;20106;-51
2023/10/06 00:31:06;;;;;;;;;;;;;;;13.35;81.85;98317.50;10494474;28;20078;-51
2023/10/06 00:41:14;;;;;;;26.70;20.55;;;;;;;13.28;82.54;98316.69;10495063;28;20051;-50
2023/10/06 00:46:14;;;;;;;28.65;19.85;;;;;;;13.30;82.70;98317.50;10495168;28;20111;-50
2023/10/06 00:51:27;;;;;;;30.45;21.48;;;;;;;13.35;82.34;98312.28;10495521;28;20153;-49
2023/10/06 00:56:28;;;;;;;26.65;20.17;;;;;;;13.36;82.23;98308.81;10456293;28;20051;-51
2023/10/06 01:01:27;;;;;;;26.55;19.92;;;;;;;13.43;82.32;98320.09;10452972;28;20062;-48
2023/10/06 01:06:33;;;;;;;;;;;;;;;13.51;82.58;98311.34;10453335;28;20133;-50
2023/10/06 01:11:51;;;;;;;26.20;18.75;;;;;;;13.59;82.12;98316.59;10452178;28;20466;-49
2023/10/06 01:16:50;;;;;;;23.08;16.67;;;;;;;13.65;82.16;98310.47;10492480;28;20073;-48
2023/10/06 01:21:53;;;;;;;23.08;16.75;;;;;;;13.75;82.12;98306.97;10494442;28;20062;-50
2023/10/06 01:27:11;;;;;;;26.33;17.23;;;;;;;13.85;81.47;98316.47;10493399;28;20149;-49
2023/10/06 01:32:10;;;;;;;21.92;16.63;;;;;;;13.92;81.13;98320.78;10493435;28;20556;-48
2023/10/06 01:37:11;;;;;;;;;;;;;;;13.95;80.89;98325.13;10493185;28;20509;-50
2023/10/06 01:42:16;;;;;;;23.13;16.67;;;;;;;13.91;80.26;98320.78;10492959;28;20015;-48
2023/10/06 01:47:18;;;;;;;23.80;16.40;;;;;;;13.90;80.58;98330.34;10492283;28;20059;-48
2023/10/06 01:52:19;;;;;;;23.70;17.17;;;;;;;13.11;79.99;98202.03;10489541;28;20044;-49
2023/10/06 01:57:18;;;;;;;23.92;17.33;;;;;;;13.89;80.27;98332.97;10450069;28;20138;-48
2023/10/06 02:02:23;;;;;;;;;;;;;;;13.93;80.75;98330.34;10450775;28;20559;-48
2023/10/06 02:07:22;;;;;;;22.70;16.88;;;;;;;13.97;80.46;98332.06;10449919;28;20375;-48
2023/10/06 02:12:21;;;;;;;;;;;;;;;13.97;80.49;98339.88;10450755;28;20448;-50
2023/10/06 02:17:19;;;;;;;23.75;17.05;;;;;;;13.98;80.48;98338.13;10449953;28;19935;-51
2023/10/06 02:22:18;;;;;;;;;;;;;;;13.98;80.32;98343.34;10491239;28;20115;-49
2023/10/06 02:27:17;;;;;;;27.65;18.15;;;;;;;13.91;80.24;98328.63;10490694;27;19973;-51
2023/10/06 02:32:16;;;;;;;;;;;;;;;13.89;80.96;98341.69;10491870;28;20067;-49
2023/10/06 02:37:21;;;;;;;24.75;17.83;;;;;;;13.91;80.88;98349.47;10490311;28;19954;-49
2023/10/06 02:42:21;;;;;;;25.35;18.17;;;;;;;13.97;81.36;98352.06;10491388;28;20399;-48
2023/10/06 02:47:21;;;;;;;24.58;16.67;;;;;;;13.69;80.57;98301.78;10490289;28;20303;-49
2023/10/06 02:52:20;;;;;;;23.20;17.73;;;;;;;14.01;80.73;98347.69;10486980;28;20422;-48
2023/10/06 02:57:20;;;;;;;24.60;17.50;;;;;;;14.09;80.49;98353.75;10448502;28;20084;-48
2023/10/06 03:02:19;;;;;;;29.55;18.33;;;;;;;14.11;79.70;98345.03;10448506;28;20062;-50
2023/10/06 03:07:19;;;;;;;24.80;16.33;;;;;;;13.93;79.59;98347.75;10447707;28;20055;-49
2023/10/06 03:12:39;;;;;;;25.30;16.80;;;;;;;14.01;79.69;98339.84;10449024;28;20054;-51
2023/10/06 03:17:38;;;;;;;26.60;15.63;;;;;;;14.08;79.58;98352.88;10447021;28;20047;-49
2023/10/06 03:22:41;;;;;;;;;;;;;;;14.12;78.45;98358.94;10448846;28;20127;-48
2023/10/06 03:27:40;;;;;;;24.40;16.83;;;;;;;14.11;78.64;98346.78;10447876;28;20320;-49
2023/10/06 03:32:39;;;;;;;26.90;16.80;;;;;;;14.15;78.37;98351.97;10447102;28;20067;-49
2023/10/06 03:43:06;;;;;;;26.95;16.70;;;;;;;14.01;78.15;98340.75;10480891;28;19947;-49
2023/10/06 03:48:09;;;;;;;30.05;17.75;;;;;;;14.02;78.32;98347.69;10488577;28;20438;-48
2023/10/06 03:53:11;;;;;;;26.67;18.13;;;;;;;13.99;78.34;98359.00;10480119;28;20044;-49
2023/10/06 03:58:11;;;;;;;26.40;18.40;;;;;;;13.96;78.40;98364.25;10488674;28;20079;-50
2023/10/06 04:03:13;;;;;;;26.13;18.42;;;;;;;13.83;78.39;98341.69;10490260;28;20509;-49
2023/10/06 04:08:15;;;;;;;25.60;18.17;;;;;;;13.48;79.91;98363.53;10496933;28;20059;-49
2023/10/06 04:13:17;;;;;;;25.77;17.35;;;;;;;13.22;81.32;98367.94;10496624;28;20055;-48
2023/10/06 04:18:18;;;;;;;25.50;16.63;;;;;;;12.91;82.37;98347.16;10496634;28;20055;-48
2023/10/06 04:23:18;;;;;;;27.70;17.80;;;;;;;13.02;82.81;98371.41;10495845;28;20063;-49
2023/10/06 04:28:19;;;;;;;27.75;17.48;;;;;;;13.23;82.38;98380.09;10496122;27;20058;-51
2023/10/06 04:33:25;;;;;;;33.40;17.27;;;;;;;13.39;81.67;98386.16;10495921;28;20063;-49
2023/10/06 04:38:29;;;;;;;31.25;19.50;;;;;;;13.46;81.69;98391.34;10479188;28;20073;-48
2023/10/06 04:43:28;;;;;;;26.55;17.17;;;;;;;13.59;81.45;98379.19;10495498;28;20059;-48
2023/10/06 04:48:29;;;;;;;;;;;;;;;13.70;80.85;98395.69;10496019;28;20024;-48
2023/10/06 04:53:28;;;;;;;28.02;19.55;;;;;;;13.81;80.01;98399.97;10485813;28;20086;-49
2023/10/06 04:58:29;;;;;;;;;;;;;;;13.96;79.93;98402.50;10453624;28;20059;-51
2023/10/06 05:03:42;;;;;;;29.58;18.75;;;;;;;14.04;79.10;98405.09;10453811;28;20038;-50
2023/10/06 05:08:44;;;;;;;25.35;16.92;;;;;;;13.96;78.96;98384.25;10452772;28;20063;-50
2023/10/06 05:13:43;;;;;;;31.88;17.50;;;;;;;14.13;78.41;98415.50;10468793;28;20452;-49
2023/10/06 05:18:44;;;;;;;;;;;;;;;14.15;78.29;98413.75;10451931;28;20465;-49
2023/10/06 05:23:45;;;;;;;26.70;18.63;;;;;;;14.27;78.39;98420.66;10452711;28;20023;-51
2023/10/06 05:28:44;;;;;;;28.63;18.85;;;;;;;14.29;77.96;98414.56;10454958;28;20052;-48
2023/10/06 05:33:42;;;;;;;;;;;;;;;14.30;78.07;98426.72;10455919;28;20064;-50
2023/10/06 05:38:41;;;;;;;32.97;19.55;;;;;;;14.47;77.74;98417.91;10287941;27;19920;-48
2023/10/06 05:43:40;;;;;;;;;;;;;;;14.52;77.37;98418.75;10386889;28;20143;-50
2023/10/06 05:48:41;;;;;;;34.75;20.90;;;;;;;14.66;77.38;98437.81;10412974;28;19951;-48
2023/10/06 05:53:42;;;;;;;33.17;20.50;;;;;;;14.70;76.81;98423.00;10438876;28;20063;-52
2023/10/06 05:58:43;;;;;;;38.63;22.67;;;;;;;14.63;76.71;98404.75;10413400;28;20071;-48
2023/10/06 06:03:49;;;;;;;39.03;24.25;;;;;;;14.98;76.59;98439.38;10456126;28;20468;-50
2023/10/06 06:08:49;;;;;;;37.72;22.45;;;;;;;14.98;76.08;98449.84;10458523;28;20513;-51
2023/10/06 06:13:48;;;;;;;38.40;23.33;;;;;;;14.80;76.25;98443.88;10457716;28;20517;-50
2023/10/06 06:18:47;;;;;;;;;;;;;;;14.85;76.41;98446.47;10458532;28;20040;-49
2023/10/06 06:23:46;;;;;;;35.28;21.52;;;;;;;14.77;76.79;98436.03;10454158;28;19955;-50
2023/10/06 06:28:45;;;;;;;36.42;22.27;;;;;;;14.94;76.58;98440.28;10409435;28;20067;-50
2023/10/06 06:33:47;;;;;;;;;;;;;;;15.08;76.35;98458.47;10437895;28;20194;-51
2023/10/06 06:38:46;;;;;;;33.13;20.95;;;;;;;15.33;76.04;98461.75;10453977;28;19951;-48
2023/10/06 06:43:45;;;;;;;28.38;18.63;;;;;;;15.51;75.35;98469.44;10454038;28;20060;-48
2023/10/06 06:48:46;;;;;;;38.65;19.42;;;;;;;15.66;75.31;98469.28;10453869;28;20079;-51
2023/10/06 06:53:45;;;;;;;26.67;19.05;;;;;;;15.93;74.44;98474.25;10453705;28;20060;-50
2023/10/06 06:58:46;;;;;;;32.85;18.42;;;;;;;16.26;73.49;98471.25;10453510;28;20074;-51
2023/10/06 07:03:45;;;;;;;31.52;18.13;;;;;;;16.44;72.54;98443.97;10425419;28;20064;-50
2023/10/06 07:08:47;;;;;;;27.75;17.98;;;;;;;16.93;71.33;98469.50;10411132;28;20047;-50
2023/10/06 07:13:46;;;;;;;27.95;17.90;;;;;;;17.03;70.29;98464.13;10439806;28;20055;-50
2023/10/06 07:18:46;;;;;;;35.45;19.15;;;;;;;17.39;68.63;98461.78;10449898;28;20023;-53
2023/10/06 07:23:45;;;;;;;28.33;17.50;;;;;;;17.65;68.08;98454.31;10445995;28;20059;-50
2023/10/06 07:28:51;;;;;;;25.35;16.25;;;;;;;17.98;65.62;98459.84;10452776;28;20042;-51
2023/10/06 07:33:54;;;;;;;35.90;18.30;;;;;;;18.19;64.78;98454.16;10453465;28;20071;-52
2023/10/06 07:38:53;;;;;;;29.92;16.23;;;;;;;18.61;63.68;98467.28;10456805;28;20063;-52
2023/10/06 07:43:52;;;;;;;19.10;13.00;;;;;;;19.01;62.52;98465.53;10463133;28;20071;-52
2023/10/06 07:48:55;;;;;;;25.20;14.05;;;;;;;19.43;60.55;98465.41;10464572;28;20064;-51
2023/10/06 07:53:54;;;;;;;21.70;13.00;;;;;;;19.65;58.57;98456.09;10463878;28;20078;-50
2023/10/06 07:58:54;;;;;;;18.17;12.40;;;;;;;19.64;58.38;98412.22;10463630;28;20071;-49
2023/10/06 08:03:53;;;;;;;24.05;12.40;;;;;;;20.16;58.19;98441.50;10462732;28;20064;-48
2023/10/06 08:08:53;;;;;;;21.70;11.63;;;;;;;20.51;57.03;98444.91;10463705;28;20090;-51
2023/10/06 08:13:54;;;;;;;19.20;11.30;;;;;;;20.86;55.88;98432.41;10463074;28;20074;-50
2023/10/06 08:18:53;;;;;;;18.52;10.75;;;;;;;21.08;55.59;98427.31;10461715;28;20091;-51
2023/10/06 08:23:52;;;;;;;17.92;10.50;;;;;;;21.39;54.35;98434.25;10464110;28;20103;-51
2023/10/06 08:28:51;;;;;;;20.30;10.98;;;;;;;21.51;53.70;98405.63;10464192;28;20032;-50
2023/10/06 08:33:50;;;;;;;20.00;10.30;;;;;;;21.80;51.65;98424.00;10462684;28;20044;-50
2023/10/06 08:38:51;;;;;;;15.07;9.50;;;;;;;21.78;50.72;98424.06;10464172;28;20118;-48
2023/10/06 08:43:53;;;;;;;16.02;9.93;;;;;;;21.83;49.86;98419.47;10465346;28;20056;-49
2023/10/06 08:48:54;;;;;;;16.25;8.98;;;;;;;21.94;49.77;98422.59;10460760;28;20074;-48
2023/10/06 08:53:55;;;;;;;13.68;8.80;;;;;;;22.37;48.34;98420.16;10463253;28;20040;-50
2023/10/06 08:58:55;;;;;;;15.50;9.13;;;;;;;22.78;47.14;98417.69;10457122;28;20560;-51
2023/10/06 09:03:55;;;;;;;14.50;8.55;;;;;;;23.18;44.77;98408.13;10458468;28;20067;-50
2023/10/06 09:08:54;;;;;;;11.90;7.32;;;;;;;23.41;43.34;98407.16;10463959;28;20063;-50
2023/10/06 09:14:07;;;;;;;16.35;7.85;;;;;;;23.85;43.07;98407.06;10461648;28;20040;-51
2023/10/06 09:19:06;;;;;;;11.98;6.57;;;;;;;23.90;38.00;98394.44;10442485;28;20064;-49
2023/10/06 09:24:19;;;;;;;11.27;6.22;;;;;;;24.11;39.13;98387.31;10456107;28;20115;-52
2023/10/06 09:29:36;;;;;;;11.27;6.38;;;;;;;24.25;38.44;98408.78;10452093;28;20071;-52
2023/10/06 09:34:35;;;;;;;11.63;6.30;;;;;;;23.47;37.68;98379.56;10435446;28;20107;-50
2023/10/06 09:39:34;;;;;;;9.02;6.55;;;;;;;23.65;37.94;98410.56;10458592;28;20075;-49
2023/10/06 09:44:34;;;;;;;12.40;6.13;;;;;;;23.39;36.93;98409.88;10423139;28;20040;-50
2023/10/06 09:49:37;;;;;;;10.93;6.00;;;;;;;23.27;35.99;98402.44;10434195;28;20067;-49
2023/10/06 09:54:38;;;;;;;9.75;5.65;;;;;;;22.91;37.43;98402.22;10455721;28;20070;-50
2023/10/06 09:59:38;;;;;;;13.48;6.60;;;;;;;23.25;37.62;98390.22;10446245;28;20071;-49
2023/10/06 10:04:38;;;;;;;13.75;6.85;;;;;;;23.57;38.10;98392.38;10456415;28;20064;-48
2023/10/06 10:09:37;;;;;;;13.52;6.45;;;;;;;23.71;37.51;98383.81;10456963;28;20074;-51
2023/10/06 10:15:15;;;;;;;9.48;5.78;;;;;;;24.30;35.93;98366.13;10455314;28;20708;-50
2023/10/06 10:20:16;;;;;;;12.30;6.22;;;;;;;24.48;36.16;98357.31;10455210;28;20069;-48
2023/10/06 10:25:18;;;;;;;12.23;5.30;;;;;;;24.30;34.38;98354.66;10455190;28;20102;-51
2023/10/06 10:30:47;;;;;;;11.25;5.13;;;;;;;24.06;34.04;98358.34;10454028;28;20089;-50
2023/10/06 10:36:20;;;;;;;11.23;5.07;;;;;;;23.87;33.29;98340.72;10452589;28;20064;-48
2023/10/06 10:41:23;;;;;;;11.77;4.75;;;;;;;24.20;33.27;98333.03;10453916;28;20064;-48
2023/10/06 10:46:46;;;;;;;8.13;4.90;;;;;;;24.51;32.62;98320.94;10456134;28;20072;-48
2023/10/06 10:51:57;;;;;;;7.70;4.50;;;;;;;24.31;32.39;98317.47;10454738;28;20466;-48
2023/10/06 10:57:01;;;;;;;9.52;4.97;;;;;;;24.06;32.16;98310.63;10442737;28;20476;-49
2023/10/06 11:02:05;;;;;;;9.48;4.53;;;;;;;24.54;32.86;98304.88;10417094;28;20063;-50
2023/10/06 11:07:11;;;;;;;6.60;4.25;;;;;;;23.92;31.90;98307.78;10453362;28;20505;-48
2023/10/06 11:12:16;;;;;;;7.70;4.70;;;;;;;23.78;31.59;98307.56;10453686;28;20074;-50
2023/10/06 11:17:22;;;;;;;9.38;4.32;;;;;;;23.76;31.96;98298.81;10453073;28;20055;-49
2023/10/06 11:22:22;;;;;;;7.45;4.13;;;;;;;23.72;32.14;98300.72;10453020;28;20059;-49
2023/10/06 11:27:22;;;;;;;8.38;3.80;;;;;;;23.55;31.45;98260.91;10457190;28;20074;-51
2023/10/06 11:32:21;;;;;;;9.20;4.82;;;;;;;24.08;31.88;98291.16;10453874;28;20116;-49
2023/10/06 11:37:25;;;;;;;8.77;3.72;;;;;;;23.64;31.61;98300.22;10457436;28;20131;-52
2023/10/06 11:42:27;;;;;;;10.40;3.92;;;;;;;23.44;31.88;98304.59;10446627;28;20044;-50
2023/10/06 11:47:26;;;;;;;9.48;3.40;;;;;;;23.13;32.04;98306.88;10456403;28;20071;-49
2023/10/06 11:52:26;;;;;;;9.88;3.80;;;;;;;22.83;32.01;98295.78;10453810;28;20051;-49
2023/10/06 11:57:45;;;;;;;8.40;3.30;;;;;;;22.71;32.37;98308.56;10454345;28;20048;-49
2023/10/06 12:02:53;;;;;;;6.47;4.00;;;;;;;22.63;33.20;98310.69;10443371;28;20479;-50
2023/10/06 12:07:52;;;;;;;6.30;3.70;;;;;;;23.02;32.97;98312.59;10452730;28;20067;-51
2023/10/06 12:12:52;;;;;;;6.55;3.72;;;;;;;23.16;33.05;98309.38;10456093;28;21030;-49
2023/10/06 12:17:51;;;;;;;7.22;2.83;;;;;;;22.90;31.99;98315.78;10455824;28;20505;-50
2023/10/06 12:22:50;;;;;;;7.00;2.97;;;;;;;22.73;32.14;98311.16;10455744;28;20530;-51
2023/10/06 12:27:50;;;;;;;6.30;2.97;;;;;;;22.46;32.26;98278.75;10460050;28;20063;-52
2023/10/06 12:32:49;;;;;;;8.95;3.60;;;;;;;22.94;32.67;98302.34;10462111;28;20080;-50
2023/10/06 12:37:48;;;;;;;5.05;3.03;;;;;;;22.93;31.42;98316.53;10462053;28;20111;-52
2023/10/06 12:42:48;;;;;;;6.82;3.10;;;;;;;22.95;31.72;98325.28;10460783;28;20502;-51
2023/10/06 12:47:48;;;;;;;8.93;3.25;;;;;;;22.85;31.28;98323.06;10457666;28;20455;-50
2023/10/06 12:52:51;;;;;;;6.93;3.45;;;;;;;22.83;31.70;98319.59;10459421;28;20063;-52
2023/10/06 12:57:52;;;;;;;7.25;4.00;;;;;;;22.69;31.21;98318.34;10458106;28;20063;-51
2023/10/06 13:02:51;;;;;;;6.65;2.90;;;;;;;22.85;31.05;98305.38;10458241;28;20065;-49
2023/10/06 13:07:51;;;;;;;6.38;3.13;;;;;;;22.98;30.72;98318.97;10458764;28;20067;-51
2023/10/06 13:12:51;;;;;;;7.18;3.15;;;;;;;23.04;30.11;98321.34;10454571;28;20503;-48
2023/10/06 13:17:50;;;;;;;7.07;3.25;;;;;;;23.44;30.39;98306.38;10454385;28;20689;-50
2023/10/06 13:22:49;;;;;;;10.85;3.22;;;;;;;23.36;30.02;98264.34;10457681;28;20888;-50
2023/10/06 13:27:48;;;;;;;7.47;3.30;;;;;;;23.28;30.41;98310.63;10460553;28;20445;-48
2023/10/06 13:32:51;;;;;;;7.68;2.80;;;;;;;23.52;30.00;98308.72;10456421;28;20571;-51
2023/10/06 13:37:50;;;;;;;8.98;3.40;;;;;;;23.46;30.59;98306.31;10457838;28;20067;-51
2023/10/06 13:42:50;;;;;;;5.75;3.00;;;;;;;23.44;30.24;98299.31;10457839;28;20094;-49
2023/10/06 13:47:53;;;;;;;7.53;2.95;;;;;;;23.01;30.67;98301.16;10457516;28;20491;-50
2023/10/06 13:52:52;;;;;;;7.30;3.08;;;;;;;22.83;30.92;98309.03;10457540;28;20505;-50
2023/10/06 13:57:53;;;;;;;6.40;3.38;;;;;;;22.80;30.75;98305.56;10456748;28;20495;-51
2023/10/06 14:02:52;;;;;;;7.20;3.55;;;;;;;22.96;30.74;98300.50;10456857;28;20067;-49
2023/10/06 14:07:51;;;;;;;5.28;2.95;;;;;;;23.01;31.36;98302.97;10457120;28;20051;-51
2023/10/06 14:12:56;;;;;;;6.00;2.97;;;;;;;22.90;31.25;98291.97;10456708;28;20111;-51
2023/10/06 14:17:55;;;;;;;7.25;3.28;;;;;;;23.22;30.90;98302.03;10457061;28;20059;-50
2023/10/06 14:22:57;;;;;;;10.10;4.07;;;;;;;23.14;30.88;98293.56;10455003;28;20063;-50
2023/10/06 14:27:57;;;;;;;14.80;3.60;;;;;;;23.05;30.67;98309.00;10456408;28;20067;-50
2023/10/06 14:49:13;;;;;;;8.52;3.50;;;;;;;22.39;31.67;98313.41;10393138;28;20083;-51
2023/10/06 14:54:12;;;;;;;7.50;3.30;;;;;;;21.28;32.00;98191.72;10411897;28;20063;-50
2023/10/06 14:59:11;;;;;;;6.75;3.20;;;;;;;22.09;32.08;98322.53;10424733;28;20093;-49
2023/10/06 15:04:13;;;;;;;6.55;3.45;;;;;;;22.22;32.24;98328.19;10413206;28;20109;-48
2023/10/06 15:09:18;;;;;;;10.63;4.63;;;;;;;22.26;32.69;98333.31;10415816;28;20063;-49
2023/10/06 15:14:23;;;;;;;6.20;3.30;;;;;;;21.78;32.52;98321.03;10421057;28;20640;-49
2023/10/06 15:19:25;;;;;;;7.05;3.45;;;;;;;21.45;33.27;98313.44;10420099;28;20099;-50
2023/10/06 15:24:24;;;;;;;8.00;3.00;;;;;;;21.18;33.88;98348.69;10419031;28;20470;-48
2023/10/06 15:29:24;;;;;;;9.02;3.40;;;;;;;21.08;33.77;98354.28;10417421;28;20563;-47
2023/10/06 15:34:26;;;;;;;6.93;3.00;;;;;;;20.95;33.90;98363.50;10417615;28;20513;-49
2023/10/06 15:39:25;;;;;;;73.22;56.75;;;;;;;20.74;34.22;98370.34;10437213;28;20506;-50
2023/10/06 15:44:26;;;;;;;186.73;127.97;;;;;;;20.45;34.65;98314.16;10444030;28;20060;-49
2023/10/06 15:49:26;;;;;;;68.82;47.25;;;;;;;20.67;34.41;98384.66;10413364;28;20116;-51
2023/10/06 15:54:25;;;;;;;14.70;7.00;;;;;;;20.63;34.65;98373.34;10418977;28;20110;-49
2023/10/06 15:59:25;;;;;;;33.72;13.63;;;;;;;20.48;34.72;98400.19;10419753;28;20064;-50
2023/10/06 16:04:26;;;;;;;27.85;13.02;;;;;;;20.43;34.87;98397.69;10428849;28;20158;-49
2023/10/06 16:09:25;;;;;;;22.35;10.65;;;;;;;20.58;34.81;98400.75;10417650;28;20089;-48
2023/10/06 16:14:24;;;;;;;14.45;7.70;;;;;;;20.64;34.92;98406.72;10416815;28;20025;-51
2023/10/06 16:19:23;;;;;;;6.18;3.92;;;;;;;20.57;34.73;98410.44;10416817;28;20024;-49
2023/10/06 16:24:22;;;;;;;9.43;3.92;;;;;;;20.32;35.08;98396.25;10440038;28;20056;-50
2023/10/06 16:29:22;;;;;;;11.50;8.52;;;;;;;20.33;34.96;98422.56;10422680;28;20043;-51
2023/10/06 16:34:21;;;;;;;11.98;4.47;;;;;;;20.38;35.36;98419.81;10426498;28;20515;-50
2023/10/06 16:39:21;;;;;;;8.90;3.63;;;;;;;20.29;35.47;98427.06;10427253;28;20414;-49
2023/10/06 16:44:20;;;;;;;10.68;4.32;;;;;;;19.94;35.57;98398.25;10448034;28;20064;-51
2023/10/06 16:49:19;;;;;;;11.30;5.35;;;;;;;19.97;35.97;98428.00;10426508;28;20060;-47
2023/10/06 16:54:18;;;;;;;10.48;4.60;;;;;;;19.67;35.94;98400.72;10418803;28;20016;-48
2023/10/06 16:59:17;;;;;;;10.15;4.10;;;;;;;19.88;36.21;98457.22;10414227;28;20038;-51
2023/10/06 17:04:18;;;;;;;10.48;4.82;;;;;;;19.78;36.32;98467.13;10414629;28;20068;-48
2023/10/06 17:09:18;;;;;;;14.57;5.97;;;;;;;19.47;36.77;98446.00;10412292;28;20075;-49
2023/10/06 17:14:17;;;;;;;11.27;6.30;;;;;;;19.53;37.20;98473.91;10414020;28;20052;-51
2023/10/06 17:19:16;;;;;;;10.30;5.72;;;;;;;19.42;37.24;98477.69;10413754;28;20029;-50
2023/10/06 17:24:16;;;;;;;12.18;5.32;;;;;;;19.28;37.96;98485.06;10411018;28;20040;-51
2023/10/06 17:29:15;;;;;;;15.25;6.13;;;;;;;18.96;38.48;98470.91;10408940;28;20075;-50
2023/10/06 17:34:17;;;;;;;13.38;5.28;;;;;;;18.92;38.93;98490.28;10409700;28;20079;-48
2023/10/06 17:39:17;;;;;;;12.55;5.18;;;;;;;18.53;39.39;98452.59;10448204;28;20059;-48
2023/10/06 17:44:16;;;;;;;13.80;6.30;;;;;;;18.56;40.11;98495.44;10447554;28;20060;-51
2023/10/06 17:49:15;;;;;;;16.60;6.70;;;;;;;18.38;41.34;98509.81;10409133;28;20135;-50
2023/10/06 17:54:14;;;;;;;12.35;6.70;;;;;;;18.05;42.33;98492.13;10408528;28;20370;-51
2023/10/06 17:59:15;;;;;;;15.45;6.05;;;;;;;17.96;43.08;98511.53;10408793;28;20119;-51
2023/10/06 18:04:14;;;;;;;13.38;5.65;;;;;;;17.73;43.86;98510.19;10408945;28;20079;-48
2023/10/06 18:09:16;;;;;;;11.75;6.30;;;;;;;17.50;44.64;98512.34;10406185;28;20408;-48
2023/10/06 18:14:15;;;;;;;14.75;6.60;;;;;;;17.26;45.24;98519.72;10448769;28;20064;-49
2023/10/06 18:19:14;;;;;;;11.45;5.30;;;;;;;16.84;45.64;98501.09;10449511;28;20177;-50
2023/10/06 18:24:13;;;;;;;13.00;5.30;;;;;;;16.79;45.86;98528.22;10446631;28;20181;-50
2023/10/06 18:29:12;;;;;;;;;;;;;;;16.62;46.22;98529.31;10448947;28;20546;-50
2023/10/06 18:34:12;;;;;;;10.97;4.37;;;;;;;16.45;46.39;98532.16;10448912;28;20468;-50
2023/10/06 18:39:13;;;;;;;9.30;4.35;;;;;;;16.25;46.86;98527.13;10448487;28;20098;-50
2023/10/06 18:44:13;;;;;;;10.15;3.85;;;;;;;16.12;47.19;98524.69;10446641;28;20047;-51
2023/10/06 18:49:12;;;;;;;12.95;4.13;;;;;;;15.98;47.13;98520.47;10444395;28;20136;-51
2023/10/06 18:54:11;;;;;;;11.88;4.22;;;;;;;15.79;47.50;98516.31;10447942;28;20063;-50
2023/10/06 18:59:11;;;;;;;;;;;;;;;15.65;47.83;98525.13;10448268;28;20038;-47
2023/10/06 19:04:09;;;;;;;12.32;6.20;;;;;;;15.27;48.96;98491.41;10448505;28;20485;-51
2023/10/06 19:09:14;;;;;;;;;;;;;;;15.37;49.16;98534.09;10448075;28;20680;-50
2023/10/06 19:14:14;;;;;;;13.35;7.38;;;;;;;15.22;50.30;98541.16;10447716;28;20433;-49
2023/10/06 19:19:13;;;;;;;17.50;7.60;;;;;;;14.50;50.33;98444.91;10447495;28;20063;-50
2023/10/06 19:24:12;;;;;;;;;;;;;;;14.94;51.29;98545.66;10449611;28;20024;-49
2023/10/06 19:29:13;;;;;;;17.92;8.38;;;;;;;14.85;51.59;98539.63;10450509;28;19912;-49
2023/10/06 19:34:13;;;;;;;21.85;9.65;;;;;;;14.71;52.52;98547.53;10450663;28;20075;-48
2023/10/06 19:39:14;;;;;;;18.15;9.00;;;;;;;14.64;52.61;98551.91;10449878;28;20067;-49
2023/10/06 19:44:13;;;;;;;20.15;8.40;;;;;;;14.37;53.38;98548.53;10445989;28;20056;-48
2023/10/06 19:49:12;;;;;;;;;;;;;;;14.39;53.42;98559.84;10409720;28;20415;-52
2023/10/06 19:54:10;;;;;;;17.13;7.85;;;;;;;14.17;54.25;98559.06;10408280;28;19913;-49
2023/10/06 19:59:09;;;;;;;;;;;;;;;14.16;54.08;98559.03;10408746;28;20078;-51
2023/10/06 20:04:11;;;;;;;15.57;7.18;;;;;;;14.11;53.71;98564.28;10408643;28;19959;-49
2023/10/06 20:09:11;;;;;;;14.63;6.72;;;;;;;13.97;54.17;98558.22;10407849;28;20158;-51
2023/10/06 20:14:10;;;;;;;11.50;4.95;;;;;;;13.93;54.11;98569.53;10408738;28;20507;-51
2023/10/06 20:19:09;;;;;;;;;;;;;;;13.87;54.19;98574.75;10409652;28;20031;-48
2023/10/06 20:24:10;;;;;;;11.27;5.47;;;;;;;13.70;55.68;98574.75;10403854;28;19956;-48
2023/10/06 20:29:09;;;;;;;12.43;5.20;;;;;;;13.62;55.72;98576.50;10404491;28;20071;-50
2023/10/06 20:34:08;;;;;;;12.57;4.82;;;;;;;13.46;56.03;98579.06;10444954;28;20507;-49
2023/10/06 20:39:10;;;;;;;9.32;5.13;;;;;;;13.39;56.23;98584.28;10446012;28;20024;-51
2023/10/06 20:44:12;;;;;;;8.73;4.43;;;;;;;13.28;56.18;98586.88;10441541;28;20382;-49
2023/10/06 20:49:14;;;;;;;9.20;4.93;;;;;;;13.20;56.35;98572.97;10451856;28;20103;-48
2023/10/06 20:54:13;;;;;;;13.98;6.07;;;;;;;13.16;57.10;98587.72;10453020;28;20063;-51
2023/10/06 20:59:13;;;;;;;10.73;4.97;;;;;;;13.06;57.88;98589.44;10452646;28;20523;-50
2023/10/06 21:04:13;;;;;;;13.48;5.68;;;;;;;12.95;58.30;98583.31;10452641;28;21404;-50
2023/10/06 21:09:15;;;;;;;10.38;5.82;;;;;;;12.81;58.66;98590.22;10452478;28;20120;-49
2023/10/06 21:14:14;;;;;;;13.40;6.90;;;;;;;12.73;59.13;98596.28;10451890;28;20143;-49
2023/10/06 21:19:13;;;;;;;16.50;6.85;;;;;;;12.64;59.96;98593.63;10450245;28;20067;-50
2023/10/06 21:24:12;;;;;;;17.67;7.13;;;;;;;12.56;60.43;98605.75;10451922;28;20035;-51
2023/10/06 21:29:11;;;;;;;12.57;6.95;;;;;;;12.47;61.17;98606.59;10451535;28;20062;-50
2023/10/06 21:34:10;;;;;;;13.20;7.00;;;;;;;12.39;60.91;98594.38;10451324;28;20040;-51
2023/10/06 21:39:11;;;;;;;10.80;6.13;;;;;;;12.34;61.36;98591.75;10451753;28;20081;-50
2023/10/06 21:44:10;;;;;;;10.35;6.25;;;;;;;12.24;61.77;98595.16;10447383;28;20059;-48
2023/10/06 21:49:09;;;;;;;13.90;6.18;;;;;;;12.20;61.47;98591.63;10408718;28;20156;-47
2023/10/06 21:54:08;;;;;;;8.40;5.72;;;;;;;12.09;61.66;98585.53;10449041;28;20040;-50
2023/10/06 21:59:06;;;;;;;17.90;7.78;;;;;;;12.04;62.78;98595.91;10448149;28;20501;-47
2023/10/06 22:04:06;;;;;;;15.02;7.35;;;;;;;12.00;62.74;98598.47;10448967;28;20455;-50
2023/10/06 22:09:06;;;;;;;12.73;6.60;;;;;;;11.88;63.86;98613.13;10448741;28;20111;-48
2023/10/06 22:14:05;;;;;;;15.25;5.97;;;;;;;11.67;65.14;98607.75;10445702;28;20075;-48
2023/10/06 22:19:04;;;;;;;13.05;5.95;;;;;;;11.47;65.11;98612.78;10406999;28;20055;-48
2023/10/06 22:24:05;;;;;;;18.58;7.05;;;;;;;11.36;64.27;98580.59;10407763;28;20040;-48
2023/10/06 22:29:04;;;;;;;16.88;7.05;;;;;;;11.56;64.49;98617.19;10407293;28;20107;-48
2023/10/06 22:34:04;;;;;;;17.65;7.53;;;;;;;11.46;64.86;98617.09;10407485;28;20076;-49
2023/10/06 22:39:05;;;;;;;24.08;9.60;;;;;;;11.44;64.34;98617.94;10407609;28;20060;-48
2023/10/06 22:44:04;;;;;;;27.20;9.45;;;;;;;11.44;64.37;98623.16;10409634;28;20055;-48
2023/10/06 22:49:03;;;;;;;14.23;7.07;;;;;;;11.32;65.29;98623.91;10448539;28;20036;-47
2023/10/06 22:54:02;;;;;;;12.52;7.00;;;;;;;11.31;65.74;98632.53;10448681;28;20039;-50
2023/10/06 22:59:03;;;;;;;11.73;5.88;;;;;;;11.23;65.35;98623.81;10448481;28;20063;-49
2023/10/06 23:04:02;;;;;;;14.35;6.65;;;;;;;11.20;65.41;98634.19;10446324;28;20132;-51
2023/10/06 23:09:01;;;;;;;14.20;6.00;;;;;;;11.17;65.97;98632.38;10447927;28;20035;-50
2023/10/06 23:14:03;;;;;;;11.77;6.43;;;;;;;11.11;66.82;98636.66;10448435;28;20529;-48
2023/10/06 23:19:04;;;;;;;10.68;6.30;;;;;;;10.02;67.24;98477.03;10447626;28;20047;-48
2023/10/06 23:24:07;;;;;;;12.30;6.05;;;;;;;10.80;67.20;98644.06;10405848;28;20079;-48
2023/10/06 23:29:06;;;;;;;13.48;5.53;;;;;;;10.69;67.91;98632.69;10405914;28;20495;-49
2023/10/06 23:34:06;;;;;;;12.50;6.20;;;;;;;10.36;67.82;98590.72;10405743;28;20522;-50
2023/10/06 23:39:08;;;;;;;14.13;6.75;;;;;;;10.51;67.59;98621.19;10405842;28;20068;-49